KMWC/MWC METAR and TAF weather

Enter ICAO airport designator
Station Type Date Time Source
KMWC METAR 2024/06/14 20:45 UTC NOAA

KMWC 142045Z 04012G16KT 10SM CLR 22/10 A3008


Station Type Date Time Source
KMWC Decoded METAR 2024/06/14 20:45 UTC NOAA

Milwaukee / Timmerman, WI, United States (KMWC) 43-07N 088-02W
Jun 14, 2024 - 04:45 PM EDT / 2024.06.14 2045 UTC
Wind: from the NE (040 degrees) at 14 MPH (12 KT) gusting to 18 MPH (16 KT):0
Visibility: 10 mile(s):0
Sky conditions: clear
Temperature: 71 F (22 C)
Dew Point: 50 F (10 C)
Relative Humidity: 46%
Pressure (altimeter): 30.08 in. Hg (1018 hPa)
ob: KMWC 142045Z 04012G16KT 10SM CLR 22/10 A3008
cycle: 21

Station Type Date Time Source
KMWC TAF UTC NOAA

Error!

Example: see airport list